createdAt,value
2022-09-18T00:01:33.139Z,13.31
2022-09-18T00:04:03.839Z,13.37
2022-09-18T00:06:35.724Z,13.39
2022-09-18T00:09:06.633Z,13.22
2022-09-18T00:11:43.794Z,13.28
2022-09-18T00:14:16.070Z,13.32
2022-09-18T00:16:43.461Z,13.36
2022-09-18T00:19:11.267Z,13.39
2022-09-18T00:21:42.483Z,13.34
2022-09-18T00:24:09.577Z,13.36
2022-09-18T00:26:36.448Z,13.42
2022-09-18T00:29:04.279Z,13.42
2022-09-18T00:31:35.086Z,13.24
2022-09-18T00:34:08.520Z,13.30
2022-09-18T00:36:38.046Z,13.31
2022-09-18T00:39:06.226Z,13.32
2022-09-18T00:41:38.597Z,13.32
2022-09-18T00:44:42.254Z,13.30
2022-09-18T00:47:18.284Z,13.23
2022-09-18T00:49:49.400Z,13.13
2022-09-18T00:52:18.871Z,13.17
2022-09-18T00:54:50.753Z,13.20
2022-09-18T00:57:24.485Z,13.23
2022-09-18T00:59:52.801Z,13.40
2022-09-18T01:02:20.176Z,13.45
2022-09-18T01:04:48.374Z,13.46
2022-09-18T01:07:46.852Z,13.42
2022-09-18T01:10:31.946Z,13.39
2022-09-18T01:13:22.978Z,13.33
2022-09-18T01:15:57.617Z,13.36
2022-09-18T01:18:51.401Z,13.37
2022-09-18T01:21:38.762Z,13.36
2022-09-18T01:24:23.593Z,13.33
2022-09-18T01:26:50.271Z,13.31
2022-09-18T01:29:29.013Z,13.25
2022-09-18T01:32:16.370Z,13.14
2022-09-18T01:35:14.233Z,13.31
2022-09-18T01:38:04.202Z,13.15
2022-09-18T01:40:42.299Z,13.18
2022-09-18T01:43:14.863Z,13.24
2022-09-18T01:45:47.703Z,13.33
2022-09-18T01:48:28.466Z,13.32
2022-09-18T01:51:04.943Z,13.29
2022-09-18T01:53:38.066Z,13.21
2022-09-18T01:56:37.835Z,13.35
2022-09-18T01:59:12.331Z,13.22
2022-09-18T02:01:43.690Z,13.34
2022-09-18T02:04:22.320Z,13.32
2022-09-18T02:07:01.964Z,13.43
2022-09-18T02:09:29.683Z,13.37
2022-09-18T02:11:59.411Z,13.38
2022-09-18T02:14:35.651Z,13.39
2022-09-18T02:17:28.304Z,13.40
2022-09-18T02:20:01.809Z,13.32
2022-09-18T02:22:32.432Z,13.37
2022-09-18T02:25:07.479Z,13.41
2022-09-18T02:27:38.798Z,13.41
2022-09-18T02:30:08.310Z,13.31
2022-09-18T02:32:40.147Z,13.33
2022-09-18T02:35:09.808Z,13.32
2022-09-18T02:37:57.834Z,13.38
2022-09-18T02:41:01.797Z,13.22
2022-09-18T02:43:46.612Z,13.13
2022-09-18T02:46:36.874Z,13.32
2022-09-18T02:49:09.952Z,13.21
2022-09-18T02:51:46.675Z,13.22
2022-09-18T02:54:42.256Z,13.23
2022-09-18T02:57:18.910Z,13.21
2022-09-18T02:59:54.413Z,13.22
2022-09-18T03:02:22.911Z,13.23
2022-09-18T03:04:50.336Z,13.25
2022-09-18T03:07:18.222Z,13.30
2022-09-18T03:09:45.126Z,13.32
2022-09-18T03:12:12.861Z,13.33
2022-09-18T03:14:39.738Z,13.35
2022-09-18T03:17:07.122Z,13.31
2022-09-18T03:19:33.942Z,13.27
2022-09-18T03:22:01.244Z,13.38
2022-09-18T03:24:28.160Z,13.40
2022-09-18T03:26:55.138Z,13.38
2022-09-18T03:29:21.956Z,13.23
2022-09-18T03:31:48.898Z,13.33
2022-09-18T03:34:15.753Z,13.17
2022-09-18T03:36:42.578Z,13.24
2022-09-18T03:39:09.408Z,13.39
2022-09-18T03:41:36.242Z,13.38
2022-09-18T03:44:03.089Z,13.35
2022-09-18T03:46:29.949Z,13.32
2022-09-18T03:48:56.978Z,13.30
2022-09-18T03:51:23.779Z,13.35
2022-09-18T03:53:53.417Z,13.44
2022-09-18T03:56:20.224Z,13.34
2022-09-18T03:58:47.046Z,13.34
2022-09-18T04:01:13.923Z,13.40
2022-09-18T04:03:40.996Z,13.34
2022-09-18T04:06:08.198Z,13.38
2022-09-18T04:08:36.088Z,13.41
2022-09-18T04:11:04.569Z,13.34
2022-09-18T04:13:33.121Z,13.36
2022-09-18T04:16:00.319Z,13.38
2022-09-18T04:18:27.158Z,13.31
2022-09-18T04:20:53.966Z,13.41
2022-09-18T04:23:20.860Z,13.38
2022-09-18T04:25:47.926Z,13.34
2022-09-18T04:28:14.688Z,13.40
2022-09-18T04:30:41.496Z,13.42
2022-09-18T04:33:08.401Z,13.41
2022-09-18T04:35:35.312Z,13.46
2022-09-18T04:38:02.235Z,13.37
2022-09-18T04:40:29.121Z,13.45
2022-09-18T04:42:56.009Z,13.41
2022-09-18T04:45:23.039Z,13.29
2022-09-18T04:47:50.184Z,13.19
2022-09-18T04:50:17.162Z,13.37
2022-09-18T04:52:44.422Z,13.44
2022-09-18T04:55:11.321Z,13.41
2022-09-18T04:57:38.127Z,13.37
2022-09-18T05:00:06.763Z,13.41
2022-09-18T05:02:33.631Z,13.41
2022-09-18T05:05:00.443Z,13.43
2022-09-18T05:07:27.650Z,13.50
2022-09-18T05:09:54.515Z,13.39
2022-09-18T05:12:21.550Z,13.51
2022-09-18T05:14:48.356Z,13.54
2022-09-18T05:17:15.518Z,13.52
2022-09-18T05:19:42.342Z,13.51
2022-09-18T05:22:09.247Z,13.56
2022-09-18T05:24:36.070Z,13.50
2022-09-18T05:27:03.888Z,13.56
2022-09-18T05:29:30.741Z,13.50
2022-09-18T05:31:57.616Z,13.55
2022-09-18T05:34:24.441Z,13.47
2022-09-18T05:36:51.232Z,13.47
2022-09-18T05:39:18.070Z,13.44
2022-09-18T05:41:49.698Z,13.44
2022-09-18T05:44:17.221Z,13.41
2022-09-18T05:46:44.211Z,13.51
2022-09-18T05:49:11.036Z,13.52
2022-09-18T05:51:39.022Z,13.56
2022-09-18T05:54:06.427Z,13.53
2022-09-18T05:56:33.207Z,13.52
2022-09-18T05:59:00.003Z,13.51
2022-09-18T06:01:26.834Z,13.56
2022-09-18T06:03:53.699Z,13.70
2022-09-18T06:06:20.500Z,13.65
2022-09-18T06:08:47.345Z,13.57
2022-09-18T06:11:14.396Z,13.53
2022-09-18T06:13:41.233Z,13.55
2022-09-18T06:16:08.152Z,13.59
2022-09-18T06:18:35.022Z,13.79
2022-09-18T06:21:01.849Z,13.67
2022-09-18T06:23:29.582Z,13.67
2022-09-18T06:26:00.926Z,13.68
2022-09-18T06:28:28.518Z,13.81
2022-09-18T06:30:55.326Z,14.06
2022-09-18T06:33:22.107Z,14.22
2022-09-18T06:35:49.195Z,14.39
2022-09-18T06:38:16.693Z,14.72
2022-09-18T06:40:54.608Z,14.98
2022-09-18T06:43:21.943Z,15.33
2022-09-18T06:45:53.697Z,15.55
2022-09-18T06:48:20.802Z,15.50
2022-09-18T06:50:55.079Z,15.51
2022-09-18T06:53:22.628Z,15.47
2022-09-18T06:55:50.690Z,15.53
2022-09-18T06:58:19.669Z,15.67
2022-09-18T07:00:47.036Z,15.75
2022-09-18T07:03:13.999Z,15.80
2022-09-18T07:05:42.813Z,15.80
2022-09-18T07:08:10.291Z,15.80
2022-09-18T07:10:37.852Z,15.77
2022-09-18T07:13:04.838Z,15.92
2022-09-18T07:15:32.239Z,15.92
2022-09-18T07:18:01.827Z,15.80
2022-09-18T07:20:29.645Z,15.66
2022-09-18T07:23:01.756Z,15.49
2022-09-18T07:25:31.455Z,15.53
2022-09-18T07:28:07.865Z,15.50
2022-09-18T07:30:37.102Z,15.42
2022-09-18T07:33:06.092Z,15.49
2022-09-18T07:35:33.487Z,15.39
2022-09-18T07:38:01.574Z,15.49
2022-09-18T07:40:29.481Z,15.58
2022-09-18T07:43:08.787Z,15.65
2022-09-18T07:45:36.271Z,15.84
2022-09-18T07:48:05.959Z,15.89
2022-09-18T07:50:33.892Z,16.12
2022-09-18T07:53:03.529Z,16.34
2022-09-18T07:55:30.497Z,16.30
2022-09-18T07:58:00.476Z,16.25
2022-09-18T08:00:31.503Z,16.45
2022-09-18T08:03:11.748Z,16.68
2022-09-18T08:05:40.805Z,16.80
2022-09-18T08:08:12.930Z,16.68
2022-09-18T08:10:41.933Z,16.58
2022-09-18T08:13:09.299Z,16.51
2022-09-18T08:15:40.436Z,16.62
2022-09-18T08:18:09.398Z,16.59
2022-09-18T08:20:36.519Z,16.77
2022-09-18T08:23:06.138Z,16.91
2022-09-18T08:25:33.890Z,17.18
2022-09-18T08:28:02.339Z,17.57
2022-09-18T08:30:30.217Z,17.80
2022-09-18T08:33:06.451Z,17.71
2022-09-18T08:35:33.888Z,17.65
2022-09-18T08:38:01.109Z,17.79
2022-09-18T08:41:02.931Z,17.87
2022-09-18T08:44:00.192Z,18.20
2022-09-18T08:46:43.574Z,17.90
2022-09-18T08:49:29.564Z,17.32
2022-09-18T08:52:08.816Z,17.08
2022-09-18T08:54:41.340Z,17.50
2022-09-18T08:57:19.408Z,17.37
2022-09-18T09:00:09.042Z,17.11
2022-09-18T09:02:41.316Z,16.99
2022-09-18T09:05:22.040Z,16.87
2022-09-18T09:08:16.721Z,16.88
2022-09-18T09:11:21.712Z,16.93
2022-09-18T09:14:01.505Z,17.30
2022-09-18T09:17:05.475Z,17.47
2022-09-18T09:20:27.965Z,17.94
2022-09-18T09:23:01.793Z,18.18
2022-09-18T09:26:04.288Z,18.29
2022-09-18T09:28:37.076Z,18.40
2022-09-18T09:31:09.233Z,18.49
2022-09-18T09:33:51.170Z,18.53
2022-09-18T09:36:24.384Z,18.74
2022-09-18T09:39:26.840Z,18.93
2022-09-18T09:42:22.937Z,19.11
2022-09-18T09:45:13.096Z,19.10
2022-09-18T09:48:16.651Z,19.14
2022-09-18T09:50:57.619Z,18.92
2022-09-18T09:53:26.807Z,18.73
2022-09-18T09:56:36.647Z,18.41
2022-09-18T09:59:22.490Z,18.55
2022-09-18T10:02:20.986Z,18.55
2022-09-18T10:05:16.307Z,18.54
2022-09-18T10:07:50.026Z,18.80
2022-09-18T10:10:47.685Z,19.44
2022-09-18T10:13:39.685Z,21.21
2022-09-18T10:16:29.578Z,22.50
2022-09-18T10:18:57.776Z,23.49
2022-09-18T10:21:28.819Z,22.52
2022-09-18T10:24:35.882Z,21.08
2022-09-18T10:27:09.943Z,20.74
2022-09-18T10:29:37.022Z,20.43
2022-09-18T10:32:04.670Z,19.95
2022-09-18T10:34:47.456Z,19.17
2022-09-18T10:37:29.151Z,18.98
2022-09-18T10:40:01.391Z,18.76
2022-09-18T10:42:32.101Z,18.62
2022-09-18T10:45:06.679Z,18.53
2022-09-18T10:47:38.005Z,18.71
2022-09-18T10:50:14.162Z,18.93
2022-09-18T10:52:42.767Z,18.66
2022-09-18T10:55:20.822Z,18.79
2022-09-18T10:57:56.790Z,18.87
2022-09-18T11:00:24.277Z,19.12
2022-09-18T11:03:12.250Z,19.60
2022-09-18T11:05:53.980Z,19.86
2022-09-18T11:08:26.834Z,19.92
2022-09-18T11:11:09.118Z,19.98
2022-09-18T11:13:49.792Z,19.96
2022-09-18T11:16:25.099Z,19.91
2022-09-18T11:19:07.599Z,20.14
2022-09-18T11:21:45.536Z,19.66
2022-09-18T11:24:31.179Z,19.72
2022-09-18T11:27:01.118Z,19.39
2022-09-18T11:29:39.814Z,19.05
2022-09-18T11:32:31.709Z,18.72
2022-09-18T11:35:03.155Z,18.44
2022-09-18T11:37:56.007Z,18.24
2022-09-18T11:40:31.895Z,18.27
2022-09-18T11:43:02.910Z,18.04
2022-09-18T11:46:06.266Z,18.08
2022-09-18T11:48:53.181Z,17.97
2022-09-18T11:51:26.779Z,17.75
2022-09-18T11:54:05.406Z,17.75
2022-09-18T11:56:49.293Z,17.54
2022-09-18T11:59:28.960Z,17.39
2022-09-18T12:02:13.545Z,17.49
2022-09-18T12:04:49.342Z,17.71
2022-09-18T12:07:38.723Z,18.00
2022-09-18T12:10:33.370Z,18.28
2022-09-18T12:13:15.130Z,18.59
2022-09-18T12:15:53.063Z,18.79
2022-09-18T12:18:29.843Z,18.99
2022-09-18T12:21:13.588Z,19.29
2022-09-18T12:23:41.321Z,19.24
2022-09-18T12:27:14.047Z,18.95
2022-09-18T12:29:41.389Z,18.81
2022-09-18T12:32:34.165Z,18.55
2022-09-18T12:35:28.308Z,18.57
2022-09-18T12:38:00.821Z,18.34
2022-09-18T12:41:10.927Z,18.30
2022-09-18T12:44:08.961Z,18.18
2022-09-18T12:47:19.909Z,18.00
2022-09-18T12:50:32.388Z,17.77
2022-09-18T12:53:36.171Z,17.66
2022-09-18T12:56:21.646Z,17.44
2022-09-18T12:59:27.801Z,17.47
2022-09-18T13:02:32.015Z,17.42
2022-09-18T13:05:28.956Z,17.52
2022-09-18T13:08:15.740Z,17.62
2022-09-18T13:10:46.947Z,17.74
2022-09-18T13:13:36.079Z,17.54
2022-09-18T13:16:15.063Z,17.59
2022-09-18T13:19:02.024Z,17.48
2022-09-18T13:21:41.715Z,17.43
2022-09-18T13:24:17.043Z,17.50
2022-09-18T13:26:48.216Z,17.38
2022-09-18T13:29:52.276Z,17.52
2022-09-18T13:32:35.147Z,17.38
2022-09-18T13:35:19.973Z,17.55
2022-09-18T13:37:48.660Z,17.61
2022-09-18T13:40:39.939Z,17.63
2022-09-18T13:43:28.687Z,17.55
2022-09-18T13:46:07.355Z,17.75
2022-09-18T13:48:40.277Z,17.86
2022-09-18T13:51:24.977Z,17.81
2022-09-18T13:54:13.426Z,17.94
2022-09-18T13:57:02.711Z,17.81
2022-09-18T14:00:06.690Z,17.60
2022-09-18T14:02:40.993Z,17.51
2022-09-18T14:05:10.100Z,17.60
2022-09-18T14:07:36.816Z,17.61
2022-09-18T14:10:06.699Z,17.54
2022-09-18T14:12:35.803Z,17.61
2022-09-18T14:15:15.515Z,17.60
2022-09-18T14:17:42.930Z,17.57
2022-09-18T14:20:21.942Z,17.58
2022-09-18T14:22:49.017Z,17.43
2022-09-18T14:25:46.668Z,17.45
2022-09-18T14:28:14.563Z,17.47
2022-09-18T14:30:41.396Z,17.34
2022-09-18T14:33:11.623Z,17.18
2022-09-18T14:36:02.118Z,17.24
2022-09-18T14:38:31.557Z,17.30
2022-09-18T14:41:31.959Z,17.13
2022-09-18T14:44:01.702Z,17.15
2022-09-18T14:46:29.046Z,17.20
2022-09-18T14:48:56.096Z,17.02
2022-09-18T14:51:35.069Z,16.96
2022-09-18T14:54:23.405Z,16.90
2022-09-18T14:56:54.926Z,17.02
2022-09-18T14:59:24.059Z,17.00
2022-09-18T15:01:51.527Z,17.03
2022-09-18T15:04:22.716Z,16.99
2022-09-18T15:06:56.386Z,17.06
2022-09-18T15:09:33.369Z,16.91
2022-09-18T15:12:03.002Z,16.89
2022-09-18T15:14:46.818Z,16.66
2022-09-18T15:17:26.260Z,16.87
2022-09-18T15:20:15.152Z,16.79
2022-09-18T15:22:42.196Z,16.79
2022-09-18T15:25:13.927Z,16.83
2022-09-18T15:27:42.367Z,16.84
2022-09-18T15:30:22.688Z,16.77
2022-09-18T15:33:03.902Z,16.76
2022-09-18T15:35:35.982Z,16.79
2022-09-18T15:38:07.430Z,16.80
2022-09-18T15:40:38.531Z,16.80
2022-09-18T15:43:35.372Z,16.75
2022-09-18T15:46:11.813Z,16.75
2022-09-18T15:48:48.071Z,16.70
2022-09-18T15:51:29.275Z,16.61
2022-09-18T15:54:12.102Z,16.61
2022-09-18T15:56:58.387Z,16.73
2022-09-18T15:59:40.561Z,16.68
2022-09-18T16:02:29.118Z,16.55
2022-09-18T16:04:56.334Z,16.59
2022-09-18T16:07:28.795Z,16.57
2022-09-18T16:09:55.653Z,16.56
2022-09-18T16:12:30.467Z,16.49
2022-09-18T16:15:16.232Z,16.50
2022-09-18T16:17:46.213Z,16.40
2022-09-18T16:20:40.262Z,16.45
2022-09-18T16:23:31.157Z,16.46
2022-09-18T16:26:12.814Z,16.38
2022-09-18T16:28:53.445Z,16.30
2022-09-18T16:31:28.081Z,16.35
2022-09-18T16:34:05.775Z,16.36
2022-09-18T16:36:41.531Z,16.33
2022-09-18T16:39:14.887Z,16.38
2022-09-18T16:41:42.359Z,16.22
2022-09-18T16:44:11.632Z,16.17
2022-09-18T16:46:49.286Z,16.12
2022-09-18T16:49:26.794Z,16.10
2022-09-18T16:51:55.530Z,16.12
2022-09-18T16:54:22.327Z,16.16
2022-09-18T16:56:56.426Z,16.05
2022-09-18T16:59:29.087Z,16.08
2022-09-18T17:02:04.160Z,16.14
2022-09-18T17:04:33.436Z,15.98
2022-09-18T17:07:00.937Z,16.10
2022-09-18T17:09:28.004Z,16.01
2022-09-18T17:11:55.550Z,15.96
2022-09-18T17:14:23.159Z,15.94
2022-09-18T17:16:50.287Z,15.96
2022-09-18T17:19:17.637Z,15.92
2022-09-18T17:21:45.087Z,15.95
2022-09-18T17:24:12.266Z,15.94
2022-09-18T17:26:56.972Z,15.92
2022-09-18T17:29:23.809Z,15.89
2022-09-18T17:31:52.147Z,15.94
2022-09-18T17:34:20.964Z,15.90
2022-09-18T17:36:49.002Z,15.71
2022-09-18T17:39:17.000Z,15.77
2022-09-18T17:41:45.613Z,15.76
2022-09-18T17:44:12.575Z,15.69
2022-09-18T17:46:39.514Z,15.63
2022-09-18T17:49:06.585Z,15.53
2022-09-18T17:51:33.437Z,15.59
2022-09-18T17:54:03.536Z,15.45
2022-09-18T17:56:32.980Z,15.44
2022-09-18T17:59:05.524Z,15.41
2022-09-18T18:01:36.320Z,15.48
2022-09-18T18:04:05.106Z,15.58
2022-09-18T18:06:32.440Z,15.41
2022-09-18T18:08:59.285Z,15.45
2022-09-18T18:11:26.232Z,15.41
2022-09-18T18:13:54.624Z,15.37
2022-09-18T18:16:31.020Z,15.48
2022-09-18T18:19:02.674Z,15.45
2022-09-18T18:21:32.380Z,15.43
2022-09-18T18:24:08.845Z,15.52
2022-09-18T18:26:38.258Z,15.46
2022-09-18T18:29:08.048Z,15.36
2022-09-18T18:31:34.991Z,15.31
2022-09-18T18:34:02.020Z,15.51
2022-09-18T18:36:31.801Z,15.52
2022-09-18T18:39:00.844Z,15.50
2022-09-18T18:41:29.942Z,15.40
2022-09-18T18:43:59.877Z,15.47
2022-09-18T18:46:29.897Z,15.42
2022-09-18T18:49:02.746Z,15.47
2022-09-18T18:51:45.881Z,15.44
2022-09-18T18:54:17.920Z,15.41
2022-09-18T18:56:46.219Z,15.39
2022-09-18T18:59:17.434Z,15.31
2022-09-18T19:01:44.878Z,15.37
2022-09-18T19:04:16.446Z,15.31
2022-09-18T19:06:44.492Z,15.27
2022-09-18T19:09:20.256Z,15.33
2022-09-18T19:11:49.713Z,15.20
2022-09-18T19:14:20.348Z,15.21
2022-09-18T19:16:49.048Z,15.21
2022-09-18T19:19:20.863Z,15.12
2022-09-18T19:21:48.223Z,15.12
2022-09-18T19:24:16.531Z,15.21
2022-09-18T19:26:46.359Z,15.19
2022-09-18T19:29:16.783Z,15.25
2022-09-18T19:31:45.909Z,15.21
2022-09-18T19:34:19.235Z,15.22
2022-09-18T19:36:52.127Z,15.18
2022-09-18T19:39:24.749Z,15.12
2022-09-18T19:42:12.388Z,15.28
2022-09-18T19:44:56.084Z,15.26
2022-09-18T19:47:34.078Z,15.24
2022-09-18T19:50:05.298Z,15.26
2022-09-18T19:52:52.912Z,15.38
2022-09-18T19:55:37.752Z,15.36
2022-09-18T19:58:04.846Z,15.43
2022-09-18T20:00:31.980Z,15.40
2022-09-18T20:03:00.003Z,15.32
2022-09-18T20:05:29.788Z,15.31
2022-09-18T20:08:01.412Z,15.39
2022-09-18T20:10:28.309Z,15.37
2022-09-18T20:12:56.690Z,15.35
2022-09-18T20:15:27.763Z,15.38
2022-09-18T20:17:56.460Z,15.30
2022-09-18T20:20:26.333Z,15.23
2022-09-18T20:22:56.862Z,15.09
2022-09-18T20:25:25.134Z,15.01
2022-09-18T20:27:51.976Z,15.06
2022-09-18T20:30:19.467Z,15.03
2022-09-18T20:32:46.389Z,15.03
2022-09-18T20:35:13.337Z,14.87
2022-09-18T20:37:40.314Z,14.79
2022-09-18T20:40:12.368Z,14.62
2022-09-18T20:42:39.277Z,14.72
2022-09-18T20:45:08.498Z,14.43
2022-09-18T20:47:37.263Z,14.31
2022-09-18T20:50:09.238Z,14.03
2022-09-18T20:52:42.988Z,13.64
2022-09-18T20:55:13.488Z,12.84
2022-09-18T20:57:41.378Z,12.52
2022-09-18T21:00:10.659Z,12.29
2022-09-18T21:02:38.126Z,12.27
2022-09-18T21:05:14.485Z,12.24
2022-09-18T21:07:43.728Z,12.30
2022-09-18T21:10:12.868Z,12.19
2022-09-18T21:12:40.057Z,12.10
2022-09-18T21:15:13.013Z,12.19
2022-09-18T21:17:39.968Z,12.06
2022-09-18T21:20:07.293Z,11.97
2022-09-18T21:22:54.070Z,11.73
2022-09-18T21:25:21.731Z,11.92
2022-09-18T21:27:49.378Z,12.05
2022-09-18T21:30:16.268Z,11.87
2022-09-18T21:32:43.113Z,11.91
2022-09-18T21:35:09.940Z,11.81
2022-09-18T21:37:36.734Z,11.89
2022-09-18T21:40:04.183Z,11.97
2022-09-18T21:42:31.099Z,11.99
2022-09-18T21:45:00.814Z,12.07
2022-09-18T21:47:27.650Z,12.09
2022-09-18T21:49:55.475Z,12.19
2022-09-18T21:52:22.282Z,12.26
2022-09-18T21:54:49.511Z,12.27
2022-09-18T21:57:16.493Z,12.26
2022-09-18T21:59:43.382Z,12.35
2022-09-18T22:02:11.612Z,12.30
2022-09-18T22:04:39.412Z,12.31
2022-09-18T22:07:06.222Z,12.33
2022-09-18T22:09:39.238Z,12.30
2022-09-18T22:12:07.646Z,12.24
2022-09-18T22:14:35.595Z,12.24
2022-09-18T22:17:06.597Z,12.22
2022-09-18T22:19:38.047Z,12.17
2022-09-18T22:22:07.547Z,12.16
2022-09-18T22:24:34.545Z,12.09
2022-09-18T22:27:05.746Z,11.92
2022-09-18T22:29:34.880Z,11.88
2022-09-18T22:32:02.102Z,11.82
2022-09-18T22:34:32.226Z,11.64
2022-09-18T22:37:00.508Z,11.67
2022-09-18T22:39:27.474Z,11.57
2022-09-18T22:41:54.878Z,11.56
2022-09-18T22:44:22.721Z,11.32
2022-09-18T22:46:54.272Z,11.44
2022-09-18T22:49:23.182Z,11.39
2022-09-18T22:51:50.665Z,11.38
2022-09-18T22:54:23.667Z,11.29
2022-09-18T22:56:52.124Z,11.23
2022-09-18T22:59:22.235Z,11.25
2022-09-18T23:02:02.370Z,11.27
2022-09-18T23:04:31.613Z,11.09
2022-09-18T23:06:59.315Z,11.05
2022-09-18T23:09:27.284Z,11.07
2022-09-18T23:11:54.699Z,11.01
2022-09-18T23:14:26.061Z,10.94
2022-09-18T23:16:53.454Z,10.91
2022-09-18T23:19:23.704Z,10.89
2022-09-18T23:21:50.937Z,10.88
2022-09-18T23:24:18.253Z,10.86
2022-09-18T23:26:48.467Z,10.81
2022-09-18T23:29:20.737Z,10.85
2022-09-18T23:31:53.300Z,10.74
2022-09-18T23:34:27.733Z,10.84
2022-09-18T23:36:56.141Z,10.82
2022-09-18T23:39:29.265Z,10.90
2022-09-18T23:41:58.766Z,10.79
2022-09-18T23:44:28.576Z,10.78
2022-09-18T23:46:55.461Z,10.78
2022-09-18T23:49:23.770Z,10.80
2022-09-18T23:51:53.882Z,10.70
2022-09-18T23:54:23.443Z,10.79
2022-09-18T23:56:50.772Z,10.80
2022-09-18T23:59:22.654Z,10.63
